Home > Products > Valid Products > TAF

000
FTUS45 KTFX 252300
TAFHLN
TAF
KHLN 252320Z 2600/2624 17007KT P6SM SCT080
     FM260400 23007KT P6SM SCT050 BKN080
     FM260900 25011KT P6SM VCSH SCT040 BKN070
     FM261700 27020G30KT P6SM SCT080 BKN150=



000
FTUS45 KTFX 252300
TAFHVR
TAF
KHVR 252320Z 2600/2624 08014KT P6SM SCT100 BKN150
     FM260300 VRB06KT P6SM SKC
     FM260900 22008KT P6SM SCT100 BKN150
     FM261500 23010G20KT P6SM SCT080 BKN120
     FM261800 25028G38KT P6SM BKN080=



000
FTUS45 KTFX 252300
TAFLWT
TAF
KLWT 252320Z 2600/2624 VRB05KT P6SM SCT080 BKN150
     FM260400 22010KT P6SM SKC
     FM260900 24013G23KT P6SM SCT080 BKN150
     FM261800 27020G30KT P6SM SCT080 BKN120=



000
FTUS45 KTFX 252300
TAFCTB
TAF
KCTB 252320Z 2600/2624 18010KT P6SM SKC
     FM260600 22015G25KT P6SM SCT080 BKN130
     FM261100 24025G35KT P6SM SCT080 BKN150
     FM261700 26032G45KT P6SM BKN080=



000
FTUS45 KTFX 252300
TAFGTF
TAF
KGTF 252320Z 2600/2624 09005KT P6SM SCT080 BKN150
     FM260200 20011KT P6SM SKC
     FM260800 21015G25KT P6SM SCT080 BKN130
     FM261200 22020G30KT P6SM SCT080 BKN150
     FM261700 24028G38KT P6SM SCT080 BKN130=



000
FTUS45 KTFX 252300
TAFBZN
TAF
KBZN 252320Z 2600/2624 16007KT P6SM SCT080 BKN150
     FM260200 16007KT P6SM SCT080
     FM260600 22008KT P6SM SCT050 BKN080
     FM261100 23011KT P6SM VCSH SCT035 OVC060
     FM261800 27015G25KT P6SM VCSH SCT040 BKN070=



000
FTUS45 KTFX 251700 RRA
TAFBZN
TAF
KBZN 251747Z 2518/2618 VRB04KT 1/4SM FG BKN002
     FM251900 22006KT P6SM FEW090
     FM260100 19008KT P6SM FEW150
     FM260800 22008KT P6SM SCT080 BKN120
     FM261500 24012KT P6SM BKN080=



000
FTUS45 KTFX 251700 RRA
TAFGTF
TAF
KGTF 251747Z 2518/2618 VRB05KT P6SM SCT150
     FM260600 22010KT P6SM SCT120
     FM261000 22015KT P6SM BKN120
     FM261300 22020G28KT P6SM BKN090=



000
FTUS45 KTFX 251700 RRA
TAFHVR
TAF
KHVR 251747Z 2518/2618 08012KT P6SM BKN150
     FM260600 22008KT P6SM BKN150
     FM261500 24012KT P6SM BKN100=



000
FTUS45 KTFX 251700 RRA
TAFHLN
TAF
KHLN 251747Z 2518/2618 VRB05KT P6SM SCT010 BKN150
     FM252100 19007KT P6SM BKN150
     FM261000 23010KT P6SM SCT080 BKN120
     FM261500 26012KT P6SM BKN080=



000
FTUS45 KTFX 251700 RRA
TAFLWT
TAF
KLWT 251747Z 2518/2618 12008KT P6SM SKC
     FM260300 21010KT P6SM SCT150
     FM261500 25015KT P6SM BKN120=



000
FTUS45 KTFX 251700 RRA
TAFCTB
TAF
KCTB 251747Z 2518/2618 15010KT P6SM BKN150
     FM260100 19010KT P6SM BKN120
     FM260600 23015KT P6SM BKN100
     FM261000 23025G35KT P6SM BKN080=



000
FTUS45 KTFX 251700 RRA
TAFLWT
TAF
KLWT 251747Z 2518/2618 12008KT P6SM SKC
     FM260300 21010KT P6SM SCT150
     FM261500 25015KT P6SM BKN120=



000
FTUS45 KTFX 251700 RRA
TAFHLN
TAF
KHLN 251747Z 2518/2618 VRB05KT P6SM SCT010 BKN150
     FM252100 19007KT P6SM BKN150
     FM261000 23010KT P6SM SCT080 BKN120
     FM261500 26012KT P6SM BKN080=



000
FTUS45 KTFX 251700 RRA
TAFHVR
TAF
KHVR 251747Z 2518/2618 08012KT P6SM BKN150
     FM260600 22008KT P6SM BKN150
     FM261500 24012KT P6SM BKN100=



000
FTUS45 KTFX 251700 RRA
TAFGTF
TAF
KGTF 251747Z 2518/2618 VRB05KT P6SM SCT150
     FM260600 22010KT P6SM SCT120
     FM261000 22015KT P6SM BKN120
     FM261300 22020G28KT P6SM BKN090=



000
FTUS45 KTFX 251700 RRA
TAFBZN
TAF
KBZN 251747Z 2518/2618 VRB04KT 1/4SM FG BKN002
     FM251900 22006KT P6SM FEW090
     FM260100 19008KT P6SM FEW150
     FM260800 22008KT P6SM SCT080 BKN120
     FM261500 24012KT P6SM BKN080=



000
FTUS45 KTFX 251700 RRA
TAFCTB
TAF
KCTB 251747Z 2518/2618 15010KT P6SM BKN150
     FM260100 19010KT P6SM BKN120
     FM260600 23015KT P6SM BKN100
     FM261000 23025G35KT P6SM BKN080=



000
FTUS45 KTFX 251600 AAB
TAFHLN
TAF AMD
KHLN 251609Z 2516/2612 VRB03KT P6SM BKN015
     FM251800 VRB06KT P6SM SCT150
     FM252100 18010KT P6SM SCT150
     FM260600 22010KT P6SM SCT080 BKN120=



000
FTUS45 KTFX 251600 AAC
TAFBZN
TAF AMD
KBZN 251608Z 2516/2612 VRB03KT 1/4SM FG OVC002
     FM251700 VRB04KT 5SM BR BKN007
     FM251800 22006KT P6SM FEW090
     FM252100 20010KT P6SM FEW200
     FM260600 23010KT P6SM SCT080 BKN120=



000
FTUS45 KTFX 251400 AAB
TAFBZN
TAF AMD
KBZN 251407Z 2514/2612 15005KT 6SM BCFG SCT001
      TEMPO 2514/2516 1/2SM FZFG VV001
     FM251600 VRB05KT P6SM FEW200
     FM252100 20010KT P6SM FEW200
     FM260600 23010KT P6SM SCT080 BKN120=



000
FTUS45 KTFX 251300 AAA
TAFHLN
TAF AMD
KHLN 251303Z 2513/2612 VRB03KT 6SM BCFG BKN015
     FM251500 VRB06KT P6SM SCT200
     FM252100 18010KT P6SM SCT200
     FM260600 22010KT P6SM SCT080 BKN120=



000
FTUS45 KTFX 251200 AAA
TAFBZN
TAF AMD
KBZN 251227Z 2512/2612 15005KT 6SM BCFG SCT001
     FM251500 VRB05KT P6SM FEW200
     FM252100 20010KT P6SM FEW200
     FM260600 23010KT P6SM SCT080 BKN120=



000
FTUS45 KTFX 251100
TAFGTF
TAF
KGTF 251135Z 2512/2612 10005KT P6SM SCT200
     FM251800 16010KT P6SM FEW200
     FM260600 22010KT P6SM SCT120=



000
FTUS45 KTFX 251100
TAFBZN
TAF
KBZN 251135Z 2512/2612 VRB05KT P6SM FEW200
     FM252100 20010KT P6SM FEW200
     FM260600 23010KT P6SM SCT080 BKN120=



000
FTUS45 KTFX 251100
TAFHVR
TAF
KHVR 251135Z 2512/2612 08010KT P6SM BKN090
     FM252100 11010KT P6SM SCT200
     FM260600 22005KT P6SM BKN200=



000
FTUS45 KTFX 251100
TAFLWT
TAF
KLWT 251135Z 2512/2612 13008KT P6SM FEW200
     FM260300 22010KT P6SM SCT200=



000
FTUS45 KTFX 251100
TAFCTB
TAF
KCTB 251135Z 2512/2612 10010KT P6SM SCT050 BKN200
     FM251800 15010KT P6SM SCT200
     FM260200 22010KT P6SM BKN200=



000
FTUS45 KTFX 251100
TAFHLN
TAF
KHLN 251135Z 2512/2612 VRB05KT P6SM SCT200
     FM252100 18010KT P6SM SCT200
     FM260600 22010KT P6SM SCT080 BKN120=



000
FTUS45 KTFX 251100
TAFCTB
TAF
KCTB 251135Z 2512/2612 10010KT P6SM SCT050 BKN200
     FM251800 15010KT P6SM SCT200
     FM260200 22010KT P6SM BKN200=



000
FTUS45 KTFX 251100
TAFHLN
TAF
KHLN 251135Z 2512/2612 VRB05KT P6SM SCT200
     FM252100 18010KT P6SM SCT200
     FM260600 22010KT P6SM SCT080 BKN120=



000
FTUS45 KTFX 251100
TAFGTF
TAF
KGTF 251135Z 2512/2612 10005KT P6SM SCT200
     FM251800 16010KT P6SM FEW200
     FM260600 22010KT P6SM SCT120=



000
FTUS45 KTFX 251100
TAFLWT
TAF
KLWT 251135Z 2512/2612 13008KT P6SM FEW200
     FM260300 22010KT P6SM SCT200=



000
FTUS45 KTFX 251100
TAFHVR
TAF
KHVR 251135Z 2512/2612 08010KT P6SM BKN090
     FM252100 11010KT P6SM SCT200
     FM260600 22005KT P6SM BKN200=



000
FTUS45 KTFX 251100
TAFBZN
TAF
KBZN 251135Z 2512/2612 VRB05KT P6SM FEW200
     FM252100 20010KT P6SM FEW200
     FM260600 23010KT P6SM SCT080 BKN120=



000
FTUS45 KTFX 250500
TAFCTB
TAF
KCTB 250520Z 2506/2606 25010KT P6SM BKN100
     FM251200 09005KT P6SM BKN060
     FM251800 15010KT P6SM BKN100=



000
FTUS45 KTFX 250500
TAFLWT
TAF
KLWT 250520Z 2506/2606 VRB05KT P6SM SCT060 BKN150
     FM250800 17005KT P6SM SKC=



000
FTUS45 KTFX 250500
TAFGTF
TAF
KGTF 250520Z 2506/2606 VRB05KT P6SM SCT060 BKN150
     FM250800 18010KT P6SM SKC=



000
FTUS45 KTFX 250500
TAFHVR
TAF
KHVR 250520Z 2506/2606 27010KT P6SM BKN150
     FM251200 10010KT P6SM SCT120=



000
FTUS45 KTFX 250500
TAFHLN
TAF
KHLN 250520Z 2506/2606 VRB05KT P6SM SKC=



000
FTUS45 KTFX 250500
TAFBZN
TAF
KBZN 250520Z 2506/2606 15005KT P6SM SKC=



000
FTUS45 KTFX 242300
TAFHVR
TAF
KHVR 242320Z 2500/2524 27010KT P6SM BKN150
     FM251200 10010KT P6SM SCT120=



000
FTUS45 KTFX 242300
TAFLWT
TAF
KLWT 242320Z 2500/2524 22005KT P6SM VCSH BKN050
     FM250600 12005KT P6SM SKC=



000
FTUS45 KTFX 242300
TAFHLN
TAF
KHLN 242320Z 2500/2524 VRB05KT P6SM SCT080
     FM250900 VRB05KT P6SM SKC=



000
FTUS45 KTFX 242300
TAFGTF
TAF
KGTF 242320Z 2500/2524 22010KT P6SM BKN150
     FM250600 18010KT P6SM SKC=



000
FTUS45 KTFX 242300
TAFBZN
TAF
KBZN 242320Z 2500/2524 15005KT P6SM BKN100
     FM250400 15005KT P6SM SKC=



000
FTUS45 KTFX 242300
TAFCTB
TAF
KCTB 242320Z 2500/2524 25015G25KT P6SM BKN100
     FM250200 25010KT P6SM BKN100
     FM251200 09005KT P6SM BKN060
     FM251800 15010KT P6SM BKN100=



000
FTUS45 KTFX 241900 AAA
TAFBZN
TAF AMD
KBZN 241941Z 2420/2518 27011KT P6SM VCSH OVC080
      TEMPO 2420/2423 -RA SCT050 OVC070
     FM250000 20010KT P6SM SCT080
     FM250400 15006KT P6SM SKC=



000
FTUS45 KTFX 241700
TAFGTF
TAF
KGTF 241721Z 2418/2518 22015G24KT P6SM BKN150
      TEMPO 2500/2503 P6SM BKN060
     FM250400 19007KT P6SM SKC=



000
FTUS45 KTFX 241700
TAFHVR
TAF
KHVR 241721Z 2418/2518 25015KT P6SM BKN150
     FM250600 27005KT P6SM BKN080
     FM251200 14010KT P6SM SCT120=



000
FTUS45 KTFX 241700
TAFBZN
TAF
KBZN 241721Z 2418/2518 27011KT P6SM OVC080
     FM250000 20010KT P6SM SCT080
     FM250400 15006KT P6SM SKC=



000
FTUS45 KTFX 241700
TAFLWT
TAF
KLWT 241721Z 2418/2518 28012KT P6SM OVC070
     FM250300 18007KT P6SM VCSH BKN050
     FM250900 14007KT P6SM SKC=



000
FTUS45 KTFX 241700
TAFHLN
TAF
KHLN 241721Z 2418/2518 27010KT P6SM VCSH BKN080
     FM250000 VRB05KT P6SM SCT080
     FM250300 VRB05KT P6SM SKC=



000
FTUS45 KTFX 241700
TAFCTB
TAF
KCTB 241721Z 2418/2518 26020G30KT P6SM SCT120
     FM250000 25012KT P6SM BKN100
     FM250900 15007KT P6SM VCSH BKN060
     FM251200 15008KT P6SM SCT090=



000
FTUS45 KTFX 241100
TAFHLN
TAF
KHLN 241135Z 2412/2512 27005KT P6SM BKN080
     FM241800 27010KT P6SM VCSH BKN080
     FM250000 VRB05KT P6SM SCT080=



000
FTUS45 KTFX 241100
TAFGTF
TAF
KGTF 241135Z 2412/2512 22011KT P6SM FEW090
     FM241600 22015G25KT P6SM SCT090
     FM250600 22005KT P6SM FEW090=



000
FTUS45 KTFX 241100
TAFBZN
TAF
KBZN 241135Z 2412/2512 27011KT P6SM BKN080
     FM250000 20010KT P6SM SCT080=



000
FTUS45 KTFX 241100
TAFCTB
TAF
KCTB 241135Z 2412/2512 26020G28KT P6SM BKN090
     FM241800 26015G25KT P6SM BKN090
     FM250300 24010KT P6SM SCT090=



000
FTUS45 KTFX 241100
TAFLWT
TAF
KLWT 241135Z 2412/2512 27010KT P6SM BKN090
     FM241800 27015G20KT P6SM BKN090
     FM250300 VRB05KT P6SM SCT090=



000
FTUS45 KTFX 241100
TAFHVR
TAF
KHVR 241135Z 2412/2512 23011KT P6SM FEW110
     FM241800 25015KT P6SM BKN110
     FM250600 27005KT P6SM SCT110=



000
FTUS45 KTFX 240800 AAA
TAFBZN
TAF AMD
KBZN 240803Z 2408/2506 26014KT P6SM OVC080=



000
FTUS45 KTFX 240500
TAFCTB
TAF
KCTB 240520Z 2406/2506 24015G25KT P6SM BKN150
     FM250000 26010KT P6SM BKN150=



000
FTUS45 KTFX 240500
TAFHLN
TAF
KHLN 240520Z 2406/2506 24010KT P6SM OVC070=



000
FTUS45 KTFX 240500
TAFLWT
TAF
KLWT 240520Z 2406/2506 25010KT P6SM SCT080 OVC150
     FM241800 25010G20KT P6SM BKN150=



000
FTUS45 KTFX 240500
TAFBZN
TAF
KBZN 240520Z 2406/2506 22010KT P6SM OVC080=



000
FTUS45 KTFX 240500
TAFHVR
TAF
KHVR 240520Z 2406/2506 22010KT P6SM BKN150
     FM241000 24015G25KT P6SM BKN150=



000
FTUS45 KTFX 240500
TAFGTF
TAF
KGTF 240520Z 2406/2506 22010G20KT P6SM OVC150
     FM241600 22015G25KT P6SM BKN150=



000
FTUS45 KTFX 232300
TAFHLN
TAF
KHLN 232331Z 2400/2424 24010KT P6SM OVC100=



000
FTUS45 KTFX 232300
TAFLWT
TAF
KLWT 232331Z 2400/2424 25010KT P6SM SCT080 OVC150
     FM241800 25010G20KT P6SM BKN150=



000
FTUS45 KTFX 232300
TAFCTB
TAF
KCTB 232331Z 2400/2424 24025G35KT P6SM BKN150=



000
FTUS45 KTFX 232300
TAFHVR
TAF
KHVR 232331Z 2400/2424 22010KT P6SM BKN150
     FM241000 24015G25KT P6SM BKN150=



000
FTUS45 KTFX 232300
TAFGTF
TAF
KGTF 232331Z 2400/2424 22010G20KT P6SM OVC150
     FM241600 22015G25KT P6SM BKN150=



000
FTUS45 KTFX 232300
TAFBZN
TAF
KBZN 232331Z 2400/2424 22010KT P6SM OVC100=



000
FTUS45 KTFX 231700
TAFHLN
TAF
KHLN 231723Z 2318/2418 VRB06KT P6SM BKN070 OVC120
     FM232000 24010KT P6SM OVC100
     FM240300 24007KT P6SM VCSH SCT060 OVC080=



000
FTUS45 KTFX 231700
TAFGTF
TAF
KGTF 231723Z 2318/2418 22015G30KT P6SM SCT080 OVC150
     FM240400 22011G22KT P6SM SCT100 BKN150=



000
FTUS45 KTFX 231700
TAFBZN
TAF
KBZN 231723Z 2318/2418 VRB05KT P6SM OVC090
     FM232000 24012KT P6SM OVC100
     FM240200 17006KT P6SM VCSH SCT060 OVC080=



000
FTUS45 KTFX 231700
TAFCTB
TAF
KCTB 231723Z 2318/2418 23025G35KT P6SM SCT100
     FM240400 25015G25KT P6SM SCT150=



000
FTUS45 KTFX 231700
TAFHVR
TAF
KHVR 231723Z 2318/2418 22020G30KT P6SM SCT080 BKN150
     FM240200 25015KT P6SM BKN150=



000
FTUS45 KTFX 231700
TAFLWT
TAF
KLWT 231723Z 2318/2418 25015G25KT P6SM SCT080 OVC150
     FM240200 25015KT P6SM BKN150=



000
FTUS45 KTFX 231100
TAFLWT
TAF
KLWT 231131Z 2312/2412 22015KT P6SM SCT080 BKN140
     FM231500 25015G25KT P6SM SCT080 BKN140
     FM240200 25015KT P6SM SCT080 BKN140=



000
FTUS45 KTFX 231100
TAFCTB
TAF
KCTB 231131Z 2312/2412 24008KT P6SM SCT080 BKN140
     FM231500 23025G35KT P6SM SCT080 BKN140=



000
FTUS45 KTFX 231100
TAFHVR
TAF
KHVR 231131Z 2312/2412 22020G30KT P6SM SCT080 BKN140
     FM240200 25020KT P6SM SCT080 BKN140=



000
FTUS45 KTFX 231100
TAFBZN
TAF
KBZN 231131Z 2312/2412 15005KT P6SM BKN080 BKN110
     FM232000 24010G20KT P6SM BKN080 BKN120
     FM240200 17006KT P6SM SCT080 BKN140=



000
FTUS45 KTFX 231100
TAFHLN
TAF
KHLN 231131Z 2312/2412 20010G20KT P6SM BKN080 BKN110
     FM232000 24012G25KT P6SM BKN080 BKN120
     FM240200 24007KT P6SM SCT080 BKN140=



000
FTUS45 KTFX 231100
TAFGTF
TAF
KGTF 231131Z 2312/2412 20015G30KT P6SM SCT080 BKN140
     FM240400 22012G25KT P6SM SCT100 BKN150=



000
FTUS45 KTFX 230600 AAA
TAFHLN
TAF AMD
KHLN 230642Z 2307/2406 20010G25KT P6SM FEW080 SCT120
     FM232000 24005G15KT P6SM BKN250=



000
FTUS45 KTFX 230500
TAFHLN
TAF
KHLN 230520Z 2306/2406 22010KT P6SM FEW080 SCT120
     FM232000 24005G15KT P6SM BKN250=



000
FTUS45 KTFX 230500
TAFGTF
TAF
KGTF 230520Z 2306/2406 20010KT P6SM FEW150
     FM230900 21015G25KT P6SM FEW150
     FM231200 22020G30KT P6SM SCT100 BKN150=



000
FTUS45 KTFX 230500
TAFHVR
TAF
KHVR 230520Z 2306/2406 23010KT P6SM SKC
     FM231800 25020G30KT P6SM BKN150=



000
FTUS45 KTFX 230500
TAFLWT
TAF
KLWT 230520Z 2306/2406 23010KT P6SM SKC
     FM231500 25015G25KT P6SM BKN150=



000
FTUS45 KTFX 230500
TAFCTB
TAF
KCTB 230520Z 2306/2406 20010KT P6SM BKN150
     FM231500 23015G25KT P6SM BKN150=



000
FTUS45 KTFX 230500
TAFBZN
TAF
KBZN 230520Z 2306/2406 15005KT P6SM SCT120
     FM232000 24010G20KT P6SM BKN250=



    US Dept of Commerce
    National Oceanic and Atmospheric Administration
    National Weather Service
    1325 East West Highway
    Silver Spring, MD 20910
    Page Author: NWS Internet Services Team
Disclaimer
Information Quality
Credits
Glossary
Privacy Policy
Freedom of Information Act (FOIA)
About Us
Career Opportunities